Time;durP1;ratioP1;P1;durP2;ratioP2;P2;SDS_P1;SDS_P2;PMS_P1;PMS_P2;Temp;Humidity;BMP_temperature;BMP_pressure;BME280_temperature;BME280_humidity;BME280_pressure;Samples;Min_cycle;Max_cycle;Signal;HPM_P1;HPM_P2
2022/06/07 00:00:24;;;;;;;4.80;4.40;;;20.20;1.00;;;;;;5043665;28;20506;-55
2022/06/07 00:02:50;;;;;;;4.67;4.27;;;20.20;1.00;;;;;;5057585;28;20519;-55
2022/06/07 00:05:16;;;;;;;5.17;4.67;;;20.10;1.00;;;;;;5043124;28;20192;-56
2022/06/07 00:07:42;;;;;;;5.20;4.70;;;20.00;1.00;;;;;;5044919;28;20188;-54
2022/06/07 00:10:08;;;;;;;4.97;4.57;;;20.10;1.00;;;;;;5043623;28;20961;-54
2022/06/07 00:12:33;;;;;;;5.27;4.40;;;20.10;1.00;;;;;;5041854;28;20196;-54
2022/06/07 00:14:59;;;;;;;4.97;4.47;;;20.20;1.00;;;;;;5048838;28;20184;-54
2022/06/07 00:17:25;;;;;;;5.00;4.60;;;20.20;1.00;;;;;;5047337;28;20450;-54
2022/06/07 00:19:50;;;;;;;4.80;4.40;;;20.20;1.00;;;;;;5042627;28;20215;-55
2022/06/07 00:22:16;;;;;;;4.77;4.37;;;20.20;1.00;;;;;;5045531;28;20303;-55
2022/06/07 00:24:42;;;;;;;5.33;4.67;;;20.10;1.00;;;;;;5052894;28;20196;-53
2022/06/07 00:27:08;;;;;;;4.60;4.20;;;20.20;1.00;;;;;;5044257;28;20446;-55
2022/06/07 00:29:34;;;;;;;5.00;4.60;;;20.10;1.00;;;;;;5039544;28;20220;-55
2022/06/07 00:32:01;;;;;;;8.33;4.60;;;20.10;1.00;;;;;;5038764;28;20291;-55
2022/06/07 00:34:26;;;;;;;4.73;4.33;;;20.10;1.00;;;;;;5044477;28;20530;-53
2022/06/07 00:36:52;;;;;;;4.83;4.43;;;20.00;1.00;;;;;;5045081;28;20457;-53
2022/06/07 00:39:18;;;;;;;5.00;4.60;;;20.00;1.00;;;;;;5049481;28;20215;-55
2022/06/07 00:41:43;;;;;;;4.60;4.17;;;20.10;1.00;;;;;;5051600;28;20180;-56
2022/06/07 00:44:20;;;;;;;5.00;4.50;;;20.00;1.00;;;;;;5051923;28;20188;-57
2022/06/07 00:46:48;;;;;;;4.10;3.80;;;19.90;1.00;;;;;;5050483;28;20243;-54
2022/06/07 00:49:18;;;;;;;4.47;4.17;;;19.90;1.00;;;;;;5050536;28;20447;-55
2022/06/07 00:51:45;;;;;;;4.97;4.47;;;19.80;1.00;;;;;;5051228;28;20800;-55
2022/06/07 00:54:17;;;;;;;8.73;5.37;;;19.80;1.00;;;;;;5047463;28;20474;-53
2022/06/07 00:56:43;;;;;;;5.10;4.33;;;19.80;1.00;;;;;;5043322;28;20443;-54
2022/06/07 00:59:08;;;;;;;4.60;4.30;;;19.70;1.00;;;;;;5070717;28;20506;-53
2022/06/07 01:01:34;;;;;;;4.30;4.00;;;19.80;1.00;;;;;;5058442;28;20231;-54
2022/06/07 01:03:59;;;;;;;4.83;4.40;;;19.80;1.00;;;;;;5052040;28;20191;-56
2022/06/07 01:11:53;;;;;;;5.80;5.30;;;19.60;1.00;;;;;;5043395;28;20428;-55
2022/06/07 01:14:18;;;;;;;6.87;4.80;;;19.50;1.00;;;;;;5049914;28;20450;-53
2022/06/07 01:16:44;;;;;;;6.73;5.23;;;19.50;1.00;;;;;;5051350;28;20188;-53
2022/06/07 01:19:10;;;;;;;5.23;4.73;;;19.50;1.00;;;;;;5052149;28;20207;-55
2022/06/07 01:21:38;;;;;;;5.53;5.00;;;19.50;1.00;;;;;;5048882;28;20661;-55
2022/06/07 01:24:04;;;;;;;5.43;5.00;;;19.50;1.00;;;;;;5055424;28;20176;-56
2022/06/07 01:26:31;;;;;;;5.47;4.97;;;19.60;1.00;;;;;;5046677;28;20429;-55
2022/06/07 01:28:57;;;;;;;5.60;5.03;;;19.60;1.00;;;;;;5052177;28;20510;-55
2022/06/07 01:31:22;;;;;;;5.70;5.20;;;19.70;1.00;;;;;;5048079;28;20450;-54
2022/06/07 01:33:48;;;;;;;4.80;4.40;;;19.70;1.00;;;;;;5060918;28;20301;-53
2022/06/07 01:36:16;;;;;;;4.70;4.30;;;19.70;1.00;;;;;;5043194;28;20180;-54
2022/06/07 01:38:44;;;;;;;5.20;4.80;;;19.80;1.00;;;;;;5051450;28;20217;-55
2022/06/07 01:44:00;;;;;;;5.03;4.63;;;19.80;1.00;;;;;;5058146;28;21102;-55
2022/06/07 01:46:25;;;;;;;4.70;4.30;;;19.70;1.00;;;;;;5049921;28;20425;-53
2022/06/07 01:48:51;;;;;;;5.20;4.80;;;19.70;1.00;;;;;;5045823;28;20223;-55
2022/06/07 01:51:17;;;;;;;5.30;4.90;;;19.70;1.00;;;;;;5043683;28;20656;-52
2022/06/07 01:53:43;;;;;;;4.93;4.53;;;18.80;1.00;;;;;;5050941;28;20600;-54
2022/06/07 01:56:16;;;;;;;5.73;5.23;;;19.80;1.00;;;;;;5049683;28;20479;-55
2022/06/07 01:58:43;;;;;;;5.40;5.00;;;19.80;1.00;;;;;;5047168;28;21009;-55
2022/06/07 02:01:15;;;;;;;5.80;5.30;;;19.80;1.00;;;;;;5052085;28;21842;-53
2022/06/07 02:03:41;;;;;;;6.77;4.77;;;19.80;1.00;;;;;;5044088;28;20409;-54
2022/06/07 02:06:13;;;;;;;5.83;4.90;;;19.90;1.00;;;;;;5051189;28;20447;-54
2022/06/07 02:08:41;;;;;;;5.10;4.60;;;19.80;1.00;;;;;;5053078;28;20602;-54
2022/06/07 02:11:24;;;;;;;6.43;5.13;;;19.70;1.00;;;;;;5050549;28;20468;-53
2022/06/07 02:13:52;;;;;;;6.00;5.50;;;19.70;1.00;;;;;;5059833;28;20811;-53
2022/06/07 02:16:19;;;;;;;6.47;5.87;;;19.70;1.00;;;;;;5046752;28;20545;-52
2022/06/07 02:18:46;;;;;;;5.57;5.03;;;19.60;1.00;;;;;;5039036;28;20428;-54
2022/06/07 02:21:16;;;;;;;5.30;4.90;;;19.60;1.00;;;;;;5042256;28;20963;-53
2022/06/07 02:23:42;;;;;;;6.30;4.90;;;19.60;1.00;;;;;;5048597;28;20443;-53
2022/06/07 02:26:36;;;;;;;5.93;5.43;;;19.60;1.00;;;;;;5061805;28;20976;-55
2022/06/07 02:29:10;;;;;;;8.17;4.93;;;19.70;1.00;;;;;;5043788;28;20199;-54
2022/06/07 02:31:40;;;;;;;5.83;5.27;;;19.60;1.00;;;;;;5046835;28;20574;-53
2022/06/07 02:34:07;;;;;;;6.30;4.80;;;19.60;1.00;;;;;;5050821;28;20454;-53
2022/06/07 02:36:34;;;;;;;5.53;5.03;;;19.60;1.00;;;;;;5042913;28;20413;-54
2022/06/07 02:39:01;;;;;;;5.33;4.93;;;19.60;1.00;;;;;;5040347;28;20441;-54
2022/06/07 02:41:29;;;;;;;5.60;5.00;;;19.50;1.00;;;;;;5045308;28;20438;-55
2022/06/07 02:43:55;;;;;;;5.93;5.33;;;19.50;1.00;;;;;;5042876;28;20470;-52
2022/06/07 02:46:21;;;;;;;7.33;5.60;;;19.60;1.00;;;;;;5043678;28;20990;-54
2022/06/07 02:48:46;;;;;;;5.63;5.13;;;19.70;1.00;;;;;;5048115;28;20218;-55
2022/06/07 02:51:14;;;;;;;5.30;4.80;;;19.90;1.00;;;;;;5046613;28;20271;-53
2022/06/07 02:53:41;;;;;;;7.80;5.50;;;19.80;1.00;;;;;;5046823;28;20507;-54
2022/06/07 02:56:13;;;;;;;6.90;4.80;;;19.70;1.00;;;;;;5047241;28;20500;-52
2022/06/07 02:58:38;;;;;;;5.43;4.93;;;19.80;1.00;;;;;;5047579;28;20438;-54
2022/06/07 03:01:04;;;;;;;5.73;5.27;;;19.70;1.00;;;;;;5046378;28;20469;-55
2022/06/07 03:03:29;;;;;;;6.50;5.50;;;19.70;1.00;;;;;;5045604;28;20184;-53
2022/06/07 03:05:56;;;;;;;5.33;4.90;;;19.60;1.00;;;;;;5040444;28;20618;-54
2022/06/07 03:08:22;;;;;;;5.80;5.30;;;19.80;1.00;;;;;;5048673;28;20180;-54
2022/06/07 03:10:49;;;;;;;5.80;5.30;;;19.90;1.00;;;;;;5045696;28;20448;-56
2022/06/07 03:13:16;;;;;;;6.43;5.40;;;19.90;1.00;;;;;;5050295;28;20438;-54
2022/06/07 03:15:42;;;;;;;18.20;5.50;;;19.90;1.00;;;;;;5045391;28;20456;-55
2022/06/07 03:18:08;;;;;;;4.77;4.30;;;19.90;1.00;;;;;;5047618;28;20476;-55
2022/06/07 03:20:34;;;;;;;6.00;5.40;;;20.10;1.00;;;;;;5044557;28;20470;-54
2022/06/07 03:23:00;;;;;;;5.53;4.90;;;20.10;1.00;;;;;;5047249;28;20518;-54
2022/06/07 03:25:26;;;;;;;5.40;4.90;;;20.10;1.00;;;;;;5043610;28;20450;-54
2022/06/07 03:27:52;;;;;;;5.50;5.00;;;20.10;1.00;;;;;;5046997;28;20230;-55
2022/06/07 03:30:18;;;;;;;5.70;5.03;;;20.00;1.00;;;;;;5048210;28;20478;-53
2022/06/07 03:32:45;;;;;;;6.80;5.43;;;20.00;1.00;;;;;;5045830;28;20274;-52
2022/06/07 03:35:11;;;;;;;5.93;5.43;;;20.00;1.00;;;;;;5043578;28;20433;-54
2022/06/07 03:37:38;;;;;;;7.83;5.30;;;20.00;1.00;;;;;;5044682;28;20498;-53
2022/06/07 03:40:08;;;;;;;5.70;5.10;;;19.90;1.00;;;;;;5049066;28;21106;-54
2022/06/07 03:42:34;;;;;;;6.33;5.27;;;19.90;1.00;;;;;;5040191;28;20422;-55
2022/06/07 03:45:00;;;;;;;5.87;5.30;;;19.70;1.00;;;;;;5038399;28;20493;-54
2022/06/07 03:47:25;;;;;;;5.57;5.10;;;19.60;1.00;;;;;;5049372;28;20224;-55
2022/06/07 03:49:51;;;;;;;6.00;5.50;;;19.70;1.00;;;;;;5038080;28;20358;-53
2022/06/07 03:52:17;;;;;;;5.97;5.47;;;19.60;1.00;;;;;;5060527;28;20187;-55
2022/06/07 03:54:43;;;;;;;5.20;4.80;;;19.60;1.00;;;;;;5048644;28;20188;-53
2022/06/07 03:57:10;;;;;;;6.70;5.20;;;19.70;1.00;;;;;;5044053;28;20493;-53
2022/06/07 03:59:37;;;;;;;6.33;5.27;;;19.70;1.00;;;;;;5039160;28;20797;-52
2022/06/07 04:02:04;;;;;;;5.80;5.30;;;19.70;1.00;;;;;;5045917;28;20426;-55
2022/06/07 04:04:29;;;;;;;9.90;6.03;;;19.70;1.00;;;;;;5046518;28;20439;-55
2022/06/07 04:09:39;;;;;;;6.80;6.20;;;;;;;;;;5046364;28;20245;-53
2022/06/07 04:12:08;;;;;;;6.80;5.60;;;19.60;1.00;;;;;;5051160;28;20939;-55
2022/06/07 04:14:42;;;;;;;5.93;5.43;;;19.60;1.00;;;;;;5053924;28;20767;-54
2022/06/07 04:17:09;;;;;;;7.00;6.40;;;19.50;1.00;;;;;;5054214;28;20428;-52
2022/06/07 04:19:36;;;;;;;5.43;4.93;;;19.50;1.00;;;;;;5061820;28;20482;-52
2022/06/07 04:22:02;;;;;;;5.40;4.90;;;19.60;1.00;;;;;;5057316;28;20424;-53
2022/06/07 04:24:28;;;;;;;5.93;5.20;;;19.60;1.00;;;;;;5059978;28;20434;-53
2022/06/07 04:26:54;;;;;;;6.30;5.70;;;19.80;1.00;;;;;;5053059;28;20442;-53
2022/06/07 04:29:19;;;;;;;7.10;5.23;;;19.80;1.00;;;;;;5053237;28;20203;-54
2022/06/07 04:31:45;;;;;;;5.63;5.00;;;20.00;1.00;;;;;;5056070;28;20203;-54
2022/06/07 04:34:10;;;;;;;6.70;5.60;;;20.20;1.00;;;;;;5055048;28;20279;-54
2022/06/07 04:36:37;;;;;;;8.87;5.10;;;20.50;1.00;;;;;;5052050;28;20218;-53
2022/06/07 04:39:04;;;;;;;6.40;5.50;;;20.30;1.00;;;;;;5065957;28;20207;-53
2022/06/07 04:41:31;;;;;;;5.60;5.07;;;20.80;1.00;;;;;;5061956;28;20526;-56
2022/06/07 04:43:58;;;;;;;6.97;5.67;;;20.90;1.00;;;;;;5069841;28;20499;-53
2022/06/07 04:46:25;;;;;;;5.20;4.80;;;21.00;1.00;;;;;;5053768;28;20451;-54
2022/06/07 04:48:51;;;;;;;5.40;4.90;;;21.00;1.00;;;;;;5055992;28;20424;-54
2022/06/07 04:51:27;;;;;;;5.37;4.80;;;21.10;1.00;;;;;;5050067;28;20428;-52
2022/06/07 04:53:54;;;;;;;5.83;5.17;;;21.10;1.00;;;;;;5052522;28;20520;-55
2022/06/07 04:56:25;;;;;;;4.70;4.40;;;21.20;1.00;;;;;;5049222;28;20425;-55
2022/06/07 04:58:51;;;;;;;6.40;5.80;;;21.10;1.00;;;;;;5055717;28;21027;-56
2022/06/07 05:01:35;;;;;;;5.60;5.10;;;21.00;1.00;;;;;;5054887;28;20526;-55
2022/06/07 05:04:03;;;;;;;5.27;4.77;;;20.90;1.00;;;;;;5047764;28;20454;-53
2022/06/07 05:06:32;;;;;;;6.13;5.60;;;20.70;1.00;;;;;;5051541;28;20445;-53
2022/06/07 05:09:01;;;;;;;5.80;5.30;;;20.70;1.00;;;;;;5052650;28;20442;-53
2022/06/07 05:11:28;;;;;;;5.60;5.10;;;20.60;1.00;;;;;;5047647;28;20473;-54
2022/06/07 05:13:54;;;;;;;5.80;5.30;;;20.50;1.00;;;;;;5057519;28;20481;-53
2022/06/07 05:16:21;;;;;;;5.90;5.40;;;20.50;1.00;;;;;;5051222;28;20431;-55
2022/06/07 05:18:48;;;;;;;5.53;5.03;;;20.50;1.00;;;;;;5050870;28;20443;-55
2022/06/07 05:21:17;;;;;;;5.17;4.77;;;20.60;1.00;;;;;;5046632;28;20503;-52
2022/06/07 05:23:43;;;;;;;5.20;4.80;;;20.80;1.00;;;;;;5049065;28;20408;-53
2022/06/07 05:26:33;;;;;;;5.33;4.83;;;21.00;1.00;;;;;;5064337;28;20772;-54
2022/06/07 05:29:00;;;;;;;6.23;5.63;;;21.30;1.00;;;;;;5054231;28;20454;-55
2022/06/07 05:31:25;;;;;;;5.60;5.10;;;21.40;1.00;;;;;;5058212;28;20917;-56
2022/06/07 05:33:52;;;;;;;5.87;5.23;;;21.40;1.00;;;;;;5051194;28;20432;-55
2022/06/07 05:36:19;;;;;;;8.90;5.90;;;21.40;1.00;;;;;;5050170;28;20191;-55
2022/06/07 05:38:45;;;;;;;5.53;5.03;;;21.40;1.00;;;;;;5048104;28;20458;-55
2022/06/07 05:41:20;;;;;;;5.57;5.07;;;21.40;1.00;;;;;;5053620;28;20431;-54
2022/06/07 05:43:46;;;;;;;5.90;5.30;;;21.60;1.00;;;;;;5067757;28;20923;-54
2022/06/07 05:46:14;;;;;;;4.67;4.27;;;21.60;1.00;;;;;;5068357;28;20412;-54
2022/06/07 05:48:40;;;;;;;4.97;4.57;;;21.60;1.00;;;;;;5051118;28;20192;-55
2022/06/07 05:51:15;;;;;;;6.20;4.83;;;21.90;1.00;;;;;;5057980;28;20514;-56
2022/06/07 05:53:40;;;;;;;7.77;4.80;;;22.00;1.00;;;;;;5055138;28;20171;-54
2022/06/07 05:56:18;;;;;;;6.13;5.33;;;22.00;1.00;;;;;;5057196;28;20962;-54
2022/06/07 05:58:43;;;;;;;7.53;4.97;;;22.00;1.00;;;;;;5049953;28;20596;-55
2022/06/07 06:01:12;;;;;;;5.47;4.97;;;22.00;1.00;;;;;;5048035;28;20484;-54
2022/06/07 06:03:40;;;;;;;7.80;5.50;;;22.00;1.00;;;;;;5051636;28;20229;-54
2022/06/07 06:06:22;;;;;;;5.20;4.70;;;22.10;1.00;;;;;;5049640;28;20955;-53
2022/06/07 06:11:33;;;;;;;7.80;4.57;;;22.00;1.00;;;;;;5051390;28;20476;-53
2022/06/07 06:13:59;;;;;;;5.00;4.60;;;22.00;1.00;;;;;;5059794;28;20443;-56
2022/06/07 06:16:24;;;;;;;7.60;4.60;;;22.00;1.00;;;;;;5050127;28;20515;-53
2022/06/07 06:18:56;;;;;;;5.10;4.70;;;21.90;1.00;;;;;;5050735;28;20438;-54
2022/06/07 06:21:24;;;;;;;5.50;4.70;;;22.00;1.00;;;;;;5047799;28;20192;-55
2022/06/07 06:23:50;;;;;;;8.27;4.70;;;22.20;1.00;;;;;;5061657;28;20464;-52
2022/06/07 06:26:18;;;;;;;5.17;4.53;;;22.30;1.00;;;;;;5059461;28;20450;-54
2022/06/07 06:28:44;;;;;;;5.00;4.10;;;22.30;1.00;;;;;;5056548;28;20196;-57
2022/06/07 06:31:11;;;;;;;6.40;4.43;;;22.30;1.00;;;;;;5054188;28;20443;-55
2022/06/07 06:33:42;;;;;;;4.80;4.50;;;22.20;1.00;;;;;;5050634;28;20176;-55
2022/06/07 06:36:14;;;;;;;5.10;4.60;;;21.90;1.00;;;;;;5053623;28;20459;-57
2022/06/07 06:38:39;;;;;;;5.17;4.50;;;21.80;1.00;;;;;;5053338;28;20410;-54
2022/06/07 06:41:18;;;;;;;6.23;4.10;;;21.80;1.00;;;;;;5046074;28;20986;-54
2022/06/07 06:43:44;;;;;;;5.57;3.97;;;21.70;1.00;;;;;;5048807;28;20645;-55
2022/06/07 06:46:13;;;;;;;4.30;3.70;;;21.50;1.00;;;;;;5050265;28;20447;-52
2022/06/07 06:48:40;;;;;;;4.77;3.60;;;21.50;1.00;;;;;;5056096;28;20481;-55
2022/06/07 06:51:10;;;;;;;3.93;3.63;;;21.50;1.00;;;;;;5049488;28;20457;-56
2022/06/07 06:53:37;;;;;;;6.33;4.10;;;21.50;1.00;;;;;;5050100;28;20972;-53
2022/06/07 06:56:12;;;;;;;4.50;3.83;;;21.40;1.00;;;;;;5051171;28;20552;-55
2022/06/07 06:58:39;;;;;;;4.53;4.07;;;21.50;1.00;;;;;;5056833;28;20452;-55
2022/06/07 07:01:11;;;;;;;7.90;4.80;;;21.60;1.00;;;;;;5049398;28;20472;-55
2022/06/07 07:03:40;;;;;;;7.50;5.80;;;21.80;1.00;;;;;;5054640;28;20990;-54
2022/06/07 07:06:11;;;;;;;5.80;5.30;;;21.90;1.00;;;;;;5048736;28;20489;-53
2022/06/07 07:08:39;;;;;;;4.97;4.30;;;22.00;1.00;;;;;;5046570;28;20443;-56
2022/06/07 07:11:31;;;;;;;5.73;4.33;;;22.20;1.00;;;;;;5041901;28;20442;-55
2022/06/07 07:13:58;;;;;;;4.60;3.73;;;22.00;1.00;;;;;;5045435;28;20470;-55
2022/06/07 07:16:26;;;;;;;4.40;4.10;;;22.10;1.00;;;;;;5046240;28;20499;-54
2022/06/07 07:18:52;;;;;;;6.53;3.77;;;22.10;1.00;;;;;;5058799;28;20440;-54
2022/06/07 07:21:22;;;;;;;6.97;4.33;;;22.30;1.00;;;;;;5069658;28;20397;-55
2022/06/07 07:23:48;;;;;;;6.60;4.30;;;22.40;1.00;;;;;;5050040;28;20527;-55
2022/06/07 07:26:20;;;;;;;4.83;3.83;;;22.60;1.00;;;;;;5063730;28;20527;-55
2022/06/07 07:28:48;;;;;;;3.83;3.53;;;22.90;1.00;;;;;;5049835;28;20550;-54
2022/06/07 07:31:17;;;;;;;5.43;3.60;;;23.30;1.00;;;;;;5050118;28;20438;-53
2022/06/07 07:33:43;;;;;;;4.40;4.00;;;23.30;1.00;;;;;;5050139;28;20421;-55
2022/06/07 07:36:09;;;;;;;3.67;3.37;;;23.40;1.00;;;;;;5050453;28;20416;-53
2022/06/07 07:38:36;;;;;;;10.33;7.83;;;23.50;1.00;;;;;;5047908;28;20192;-52
2022/06/07 07:41:02;;;;;;;4.90;3.63;;;23.60;1.00;;;;;;5053770;28;20478;-56
2022/06/07 07:43:28;;;;;;;3.30;3.00;;;23.80;1.00;;;;;;5049881;28;20516;-56
2022/06/07 07:45:55;;;;;;;3.20;2.60;;;23.80;1.00;;;;;;5050084;28;20914;-55
2022/06/07 07:48:22;;;;;;;2.30;2.10;;;23.90;1.00;;;;;;5050577;28;20258;-55
2022/06/07 07:50:48;;;;;;;2.53;2.33;;;24.20;1.00;;;;;;5052654;28;20788;-53
2022/06/07 07:53:14;;;;;;;2.90;2.70;;;;;;;;;;5053634;28;20429;-55
2022/06/07 07:55:45;;;;;;;3.83;2.53;;;24.30;1.00;;;;;;5053948;28;20935;-54
2022/06/07 07:58:11;;;;;;;3.67;3.37;;;24.30;1.00;;;;;;5055960;28;20798;-56
2022/06/07 08:00:37;;;;;;;4.07;2.73;;;24.60;1.00;;;;;;5056876;28;20459;-55
2022/06/07 08:03:03;;;;;;;2.60;2.40;;;24.90;1.00;;;;;;5053571;28;20434;-53
2022/06/07 08:05:31;;;;;;;3.00;2.40;;;25.00;1.00;;;;;;5054582;28;21160;-53
2022/06/07 08:07:57;;;;;;;3.40;3.10;;;25.30;1.00;;;;;;5052160;28;20290;-55
2022/06/07 08:10:24;;;;;;;2.97;2.67;;;25.40;1.00;;;;;;5053994;28;20906;-56
2022/06/07 08:12:49;;;;;;;5.00;3.60;;;25.00;1.00;;;;;;5052708;28;20451;-54
2022/06/07 08:15:15;;;;;;;4.90;3.13;;;25.00;1.00;;;;;;5056060;28;20424;-55
2022/06/07 08:17:42;;;;;;;5.13;3.90;;;24.80;1.00;;;;;;5055146;28;20195;-55
2022/06/07 08:20:08;;;;;;;7.33;3.67;;;24.50;1.00;;;;;;5051511;28;20851;-55
2022/06/07 08:22:34;;;;;;;3.90;3.53;;;24.30;1.00;;;;;;5055966;28;20409;-56
2022/06/07 08:25:00;;;;;;;3.50;3.20;;;24.30;1.00;;;;;;5052629;28;20753;-55
2022/06/07 08:27:26;;;;;;;5.00;4.60;;;24.30;1.00;;;;;;5060311;28;20187;-54
2022/06/07 08:29:51;;;;;;;8.30;4.10;;;24.60;1.00;;;;;;5055840;28;20762;-54
2022/06/07 08:32:17;;;;;;;4.53;4.13;;;24.90;1.00;;;;;;5051999;28;20191;-53
2022/06/07 08:37:33;;;;;;;6.13;4.47;;;25.20;1.00;;;;;;5068931;28;20241;-54
2022/06/07 08:39:59;;;;;;;5.00;3.97;;;25.00;1.00;;;;;;5058108;28;20452;-55
2022/06/07 08:42:35;;;;;;;4.80;4.40;;;24.50;1.00;;;;;;5053751;28;20409;-56
2022/06/07 08:45:19;;;;;;;6.63;4.70;;;24.70;1.00;;;;;;5052977;28;20432;-56
2022/06/07 08:47:51;;;;;;;6.80;4.60;;;25.10;1.00;;;;;;5068263;28;20470;-56
2022/06/07 08:50:26;;;;;;;6.30;4.70;;;25.30;1.00;;;;;;5057223;28;20420;-53
2022/06/07 08:53:16;;;;;;;5.73;4.93;;;25.40;1.00;;;;;;5054790;28;20451;-55
2022/06/07 08:55:53;;;;;;;5.40;4.90;;;25.40;1.00;;;;;;5064700;28;20508;-55
2022/06/07 08:58:24;;;;;;;5.13;4.63;;;25.30;1.00;;;;;;5059374;28;20449;-56
2022/06/07 09:00:58;;;;;;;4.90;4.50;;;25.20;1.00;;;;;;5052919;28;20437;-54
2022/06/07 09:03:33;;;;;;;5.97;4.40;;;25.60;1.00;;;;;;5057648;28;20458;-55
2022/06/07 09:06:03;;;;;;;4.90;4.20;;;25.60;1.00;;;;;;5061170;28;20461;-60
2022/06/07 09:08:35;;;;;;;4.97;4.47;;;25.70;1.00;;;;;;5054308;28;20446;-55
2022/06/07 09:14:00;;;;;;;5.07;3.50;;;25.70;1.00;;;;;;5052690;28;20445;-53
2022/06/07 09:16:26;;;;;;;4.90;3.87;;;25.50;1.00;;;;;;5064437;28;20451;-55
2022/06/07 09:18:52;;;;;;;7.17;5.73;;;25.20;1.00;;;;;;5053926;28;20515;-55
2022/06/07 09:21:29;;;;;;;7.00;4.30;;;25.00;1.00;;;;;;5059233;28;20196;-55
2022/06/07 09:23:57;;;;;;;4.20;3.80;;;24.50;1.00;;;;;;5056800;28;20203;-55
2022/06/07 09:26:31;;;;;;;3.73;3.43;;;24.50;1.00;;;;;;5055292;28;20412;-55
2022/06/07 09:29:27;;;;;;;5.77;3.90;;;24.50;1.00;;;;;;5070314;28;20408;-55
2022/06/07 09:31:53;;;;;;;5.10;4.60;;;24.60;1.00;;;;;;5050127;28;20454;-55
2022/06/07 09:34:25;;;;;;;3.60;3.30;;;24.50;1.00;;;;;;5053637;28;20417;-56
2022/06/07 09:36:57;;;;;;;4.37;3.30;;;24.50;1.00;;;;;;5051640;28;20302;-53
2022/06/07 09:39:34;;;;;;;3.73;3.37;;;24.40;1.00;;;;;;5050879;28;20444;-56
2022/06/07 09:42:02;;;;;;;4.07;2.93;;;24.30;1.00;;;;;;5055588;28;20993;-54
2022/06/07 09:44:35;;;;;;;4.30;3.90;;;24.30;1.00;;;;;;5053961;28;20437;-52
2022/06/07 09:47:13;;;;;;;4.27;3.30;;;24.30;1.00;;;;;;5051141;28;20536;-54
2022/06/07 09:49:59;;;;;;;3.20;3.00;;;24.00;1.00;;;;;;5046567;28;20446;-53
2022/06/07 09:52:29;;;;;;;3.80;3.40;;;23.90;1.00;;;;;;5060108;28;20452;-55
2022/06/07 09:54:59;;;;;;;3.17;2.97;;;23.90;1.00;;;;;;5071705;28;20411;-54
2022/06/07 09:57:39;;;;;;;3.40;3.10;;;23.70;1.00;;;;;;5063686;28;20958;-54
2022/06/07 10:00:21;;;;;;;4.17;2.80;;;23.70;1.00;;;;;;5055825;28;20974;-52
2022/06/07 10:03:02;;;;;;;3.80;2.60;;;23.70;1.00;;;;;;5061934;28;20935;-55
2022/06/07 10:05:33;;;;;;;2.97;2.77;;;23.50;1.00;;;;;;5047074;28;20497;-55
2022/06/07 10:08:20;;;;;;;2.67;2.40;;;23.60;1.00;;;;;;5060909;28;20952;-55
2022/06/07 10:10:50;;;;;;;2.83;2.40;;;23.80;1.00;;;;;;5051864;28;20467;-55
2022/06/07 10:13:43;;;;;;;3.73;2.60;;;23.60;1.00;;;;;;5051429;28;20454;-55
2022/06/07 10:16:24;;;;;;;5.27;2.37;;;23.70;1.00;;;;;;5067014;28;20408;-56
2022/06/07 10:19:09;;;;;;;2.37;2.17;;;23.80;1.00;;;;;;5063534;28;20472;-52
2022/06/07 10:21:40;;;;;;;2.27;2.07;;;23.60;1.00;;;;;;5071130;28;20412;-54
2022/06/07 10:24:24;;;;;;;2.30;2.10;;;23.70;1.00;;;;;;5052389;28;20413;-56
2022/06/07 10:26:57;;;;;;;2.40;2.20;;;23.60;1.00;;;;;;5051208;28;20446;-56
2022/06/07 10:29:26;;;;;;;2.80;2.00;;;23.80;1.00;;;;;;5068033;28;20446;-56
2022/06/07 10:32:02;;;;;;;2.67;2.20;;;24.10;1.00;;;;;;5062027;28;20774;-55
2022/06/07 10:34:40;;;;;;;2.80;2.30;;;24.00;1.00;;;;;;5050183;28;20508;-54
2022/06/07 10:37:17;;;;;;;3.40;2.43;;;23.70;1.00;;;;;;5063731;28;20481;-55
2022/06/07 10:39:57;;;;;;;3.20;2.90;;;23.60;1.00;;;;;;5059117;28;20462;-53
2022/06/07 10:42:23;;;;;;;5.93;2.37;;;;;;;;;;5050993;28;20802;-52
2022/06/07 10:44:58;;;;;;;2.77;2.40;;;23.80;1.00;;;;;;5069471;28;20499;-53
2022/06/07 10:47:49;;;;;;;2.97;2.33;;;23.80;1.00;;;;;;5059351;28;20552;-54
2022/06/07 10:50:47;;;;;;;4.13;2.10;;;23.90;1.00;;;;;;5064486;28;20528;-55
2022/06/07 10:53:19;;;;;;;3.50;2.00;;;24.10;1.00;;;;;;5053005;28;20441;-56
2022/06/07 10:55:58;;;;;;;2.70;1.77;;;24.10;1.00;;;;;;5050626;28;20822;-57
2022/06/07 10:58:38;;;;;;;2.47;2.27;;;24.10;1.00;;;;;;5051069;28;21225;-55
2022/06/07 11:01:15;;;;;;;2.47;1.80;;;24.10;1.00;;;;;;5053444;28;20461;-55
2022/06/07 11:03:50;;;;;;;2.40;2.00;;;24.10;1.00;;;;;;5051684;28;20423;-55
2022/06/07 11:09:37;;;;;;;2.93;1.87;;;23.70;1.00;;;;;;5050617;28;20433;-53
2022/06/07 11:12:24;;;;;;;2.27;2.07;;;23.70;1.00;;;;;;5060121;28;20437;-54
2022/06/07 11:15:25;;;;;;;3.63;1.97;;;24.00;1.00;;;;;;5051788;28;21165;-54
2022/06/07 11:18:15;;;;;;;3.03;2.20;;;24.50;1.00;;;;;;5065655;28;20447;-52
2022/06/07 11:21:23;;;;;;;2.17;2.00;;;25.20;1.00;;;;;;5061303;28;20469;-55
2022/06/07 11:23:58;;;;;;;2.07;1.97;;;25.60;1.00;;;;;;5044236;28;20439;-54
2022/06/07 11:26:24;;;;;;;3.03;2.20;;;25.60;1.00;;;;;;5053152;28;20438;-54
2022/06/07 11:28:53;;;;;;;3.63;1.70;;;25.50;1.00;;;;;;5051876;28;20918;-53
2022/06/07 11:31:39;;;;;;;3.13;2.07;;;25.60;1.00;;;;;;5053117;28;20442;-53
2022/06/07 11:34:23;;;;;;;2.53;2.27;;;25.60;1.00;;;;;;5058227;28;20418;-54
2022/06/07 11:36:51;;;;;;;1.77;1.67;;;25.60;1.00;;;;;;5057782;28;20478;-54
2022/06/07 11:39:44;;;;;;;3.53;1.90;;;25.60;1.00;;;;;;5064680;28;20471;-54
2022/06/07 11:42:13;;;;;;;3.97;1.90;;;25.60;1.00;;;;;;5047693;28;20420;-54
2022/06/07 11:44:42;;;;;;;2.70;2.00;;;25.60;1.00;;;;;;5050015;28;20408;-53
2022/06/07 11:47:07;;;;;;;3.30;2.27;;;25.30;1.00;;;;;;5049474;28;20484;-56
2022/06/07 11:49:40;;;;;;;2.33;1.80;;;25.30;1.00;;;;;;5050173;28;20409;-54
2022/06/07 11:52:12;;;;;;;2.80;2.13;;;25.40;1.00;;;;;;5050075;28;20593;-56
2022/06/07 11:54:43;;;;;;;2.50;1.87;;;25.20;1.00;;;;;;5059769;28;20425;-55
2022/06/07 11:57:28;;;;;;;2.70;2.13;;;25.20;1.00;;;;;;5053166;28;20438;-56
2022/06/07 12:00:15;;;;;;;5.10;2.03;;;25.40;1.00;;;;;;5068662;28;20482;-53
2022/06/07 12:03:03;;;;;;;2.00;1.80;;;25.70;1.00;;;;;;5048814;28;20466;-55
2022/06/07 12:05:41;;;;;;;3.03;2.10;;;25.80;1.00;;;;;;5049808;28;20458;-54
2022/06/07 12:08:25;;;;;;;3.80;2.07;;;25.70;1.00;;;;;;5061531;28;20433;-54
2022/06/07 12:11:24;;;;;;;1.67;1.57;;;25.30;1.00;;;;;;5070010;28;20890;-54
2022/06/07 12:14:05;;;;;;;3.20;1.90;;;25.20;1.00;;;;;;5051717;28;20983;-54
2022/06/07 12:16:59;;;;;;;4.43;1.90;;;25.40;1.00;;;;;;5069175;28;20768;-57
2022/06/07 12:19:29;;;;;;;4.10;1.93;;;25.80;1.00;;;;;;5055201;28;20547;-55
2022/06/07 12:21:56;;;;;;;2.30;1.80;;;24.80;1.00;;;;;;5047348;28;20966;-55
2022/06/07 12:24:23;;;;;;;1.97;1.80;;;26.30;1.00;;;;;;5058451;28;20400;-56
2022/06/07 12:26:50;;;;;;;1.63;1.43;;;26.30;1.00;;;;;;5069709;28;20438;-53
2022/06/07 12:29:29;;;;;;;2.57;2.00;;;26.20;1.00;;;;;;5048273;28;20421;-57
2022/06/07 12:32:04;;;;;;;2.07;1.73;;;26.00;1.00;;;;;;5049245;28;20417;-54
2022/06/07 12:34:32;;;;;;;2.00;1.90;;;26.20;1.00;;;;;;5052878;28;20433;-55
2022/06/07 12:37:08;;;;;;;4.63;2.20;;;26.30;1.00;;;;;;5056454;28;20404;-54
2022/06/07 12:39:43;;;;;;;2.63;2.00;;;26.60;1.00;;;;;;5064102;28;20598;-53
2022/06/07 12:42:15;;;;;;;3.30;1.80;;;26.80;1.00;;;;;;5060214;28;20412;-54
2022/06/07 12:44:42;;;;;;;3.00;2.00;;;26.80;1.00;;;;;;5061894;28;20496;-54
2022/06/07 12:47:22;;;;;;;1.73;1.53;;;26.90;1.00;;;;;;5064381;28;20436;-54
2022/06/07 12:49:48;;;;;;;1.77;1.67;;;27.00;1.00;;;;;;5063340;28;20512;-56
2022/06/07 12:52:22;;;;;;;3.03;1.93;;;27.00;1.00;;;;;;5058361;28;20943;-55
2022/06/07 12:54:50;;;;;;;2.50;2.00;;;27.20;1.00;;;;;;5062366;28;20462;-56
2022/06/07 12:57:26;;;;;;;2.50;1.60;;;27.40;1.00;;;;;;5053153;28;20415;-54
2022/06/07 13:00:11;;;;;;;1.70;1.60;;;27.50;1.00;;;;;;5055449;28;20971;-53
2022/06/07 13:02:41;;;;;;;5.43;2.10;;;27.40;1.00;;;;;;5063291;28;20439;-56
2022/06/07 13:05:25;;;;;;;2.23;2.03;;;27.10;1.00;;;;;;5052926;28;20794;-54
2022/06/07 13:07:53;;;;;;;1.83;1.73;;;27.00;1.00;;;;;;5052625;28;20409;-53
2022/06/07 13:10:26;;;;;;;2.27;2.07;;;26.70;1.00;;;;;;5067939;28;20754;-54
2022/06/07 13:12:57;;;;;;;2.97;1.60;;;26.60;1.00;;;;;;5060753;28;20841;-55
2022/06/07 13:15:22;;;;;;;1.63;1.53;;;25.90;1.00;;;;;;5049889;28;20415;-55
2022/06/07 13:18:00;;;;;;;3.63;1.90;;;25.90;1.00;;;;;;5056467;28;20780;-53
2022/06/07 13:20:32;;;;;;;3.10;1.80;;;25.50;1.00;;;;;;5061911;28;20284;-53
2022/06/07 13:22:57;;;;;;;2.13;1.63;;;25.30;1.00;;;;;;5055877;28;20417;-54
2022/06/07 13:25:25;;;;;;;3.80;1.80;;;25.20;1.00;;;;;;5064902;28;20404;-54
2022/06/07 13:27:58;;;;;;;3.77;2.23;;;25.00;1.00;;;;;;5064688;28;20186;-53
2022/06/07 13:30:26;;;;;;;2.93;1.77;;;25.00;1.00;;;;;;5061008;28;20969;-57
2022/06/07 13:33:09;;;;;;;1.90;1.70;;;24.80;1.00;;;;;;5072444;28;20923;-54
2022/06/07 13:35:41;;;;;;;2.27;1.70;;;24.60;1.00;;;;;;5070973;28;20441;-55
2022/06/07 13:38:27;;;;;;;2.60;2.00;;;24.50;1.00;;;;;;5070436;28;20412;-53